createdAt,value
2024-03-15T00:00:33.622Z,34.86
2024-03-15T00:03:02.853Z,34.54
2024-03-15T00:05:31.224Z,35.08
2024-03-15T00:07:58.930Z,34.69
2024-03-15T00:10:26.712Z,35.15
2024-03-15T00:12:54.607Z,34.76
2024-03-15T00:15:23.151Z,35.08
2024-03-15T00:17:50.990Z,35.08
2024-03-15T00:20:18.805Z,34.58
2024-03-15T00:22:46.551Z,34.63
2024-03-15T00:25:14.913Z,34.86
2024-03-15T00:27:42.660Z,34.74
2024-03-15T00:30:10.646Z,34.58
2024-03-15T00:32:38.394Z,34.80
2024-03-15T00:35:06.449Z,35.08
2024-03-15T00:37:34.202Z,35.08
2024-03-15T00:40:01.926Z,35.02
2024-03-15T00:42:30.175Z,34.72
2024-03-15T00:44:58.641Z,34.96
2024-03-15T00:47:26.364Z,34.63
2024-03-15T00:49:54.081Z,34.68
2024-03-15T00:52:22.656Z,34.67
2024-03-15T00:54:50.435Z,34.34
2024-03-15T00:57:18.224Z,34.80
2024-03-15T00:59:46.029Z,34.77
2024-03-15T01:02:13.760Z,35.06
2024-03-15T01:04:41.489Z,34.98
2024-03-15T01:07:09.254Z,34.74
2024-03-15T01:09:38.389Z,35.04
2024-03-15T01:12:06.480Z,34.98
2024-03-15T01:14:34.231Z,34.98
2024-03-15T01:17:01.967Z,35.10
2024-03-15T01:19:33.276Z,35.16
2024-03-15T01:22:01.284Z,35.12
2024-03-15T01:24:29.832Z,35.26
2024-03-15T01:26:57.925Z,35.13
2024-03-15T01:29:25.774Z,35.03
2024-03-15T01:31:53.528Z,34.66
2024-03-15T01:34:23.114Z,34.61
2024-03-15T01:36:50.912Z,34.87
2024-03-15T01:39:19.433Z,35.05
2024-03-15T01:41:47.213Z,34.77
2024-03-15T01:44:15.721Z,34.72
2024-03-15T01:46:43.489Z,34.75
2024-03-15T01:49:11.894Z,34.47
2024-03-15T01:51:39.702Z,35.06
2024-03-15T01:54:08.665Z,34.48
2024-03-15T01:56:36.526Z,34.49
2024-03-15T01:59:04.236Z,34.72
2024-03-15T02:01:32.526Z,34.73
2024-03-15T02:04:00.291Z,34.74
2024-03-15T02:06:28.039Z,34.29
2024-03-15T02:08:57.022Z,34.25
2024-03-15T02:11:25.771Z,34.73
2024-03-15T02:13:53.618Z,34.45
2024-03-15T02:16:22.100Z,34.52
2024-03-15T02:18:51.131Z,34.53
2024-03-15T02:21:19.017Z,34.74
2024-03-15T02:23:47.289Z,34.71
2024-03-15T02:26:15.002Z,34.94
2024-03-15T02:28:43.036Z,34.61
2024-03-15T02:31:10.856Z,34.87
2024-03-15T02:33:39.459Z,34.99
2024-03-15T02:36:09.948Z,34.75
2024-03-15T02:38:37.882Z,35.13
2024-03-15T02:41:07.130Z,35.25
2024-03-15T02:43:34.995Z,35.02
2024-03-15T02:46:02.790Z,34.93
2024-03-15T02:48:33.155Z,35.09
2024-03-15T02:51:01.851Z,34.86
2024-03-15T02:53:29.903Z,35.04
2024-03-15T02:55:57.622Z,34.93
2024-03-15T02:58:25.340Z,34.84
2024-03-15T03:00:53.235Z,35.25
2024-03-15T03:03:21.083Z,35.02
2024-03-15T03:05:48.901Z,34.62
2024-03-15T03:08:16.664Z,34.54
2024-03-15T03:10:44.405Z,34.57
2024-03-15T03:13:13.789Z,34.66
2024-03-15T03:15:41.889Z,34.94
2024-03-15T03:18:09.807Z,35.08
2024-03-15T03:20:37.651Z,34.86
2024-03-15T03:23:05.414Z,35.00
2024-03-15T03:25:34.507Z,34.85
2024-03-15T03:28:02.257Z,34.64
2024-03-15T03:30:30.032Z,35.06
2024-03-15T03:32:58.628Z,34.77
2024-03-15T03:35:26.343Z,34.86
2024-03-15T03:37:54.068Z,35.15
2024-03-15T03:40:25.776Z,35.00
2024-03-15T03:42:53.661Z,34.67
2024-03-15T03:45:23.845Z,34.83
2024-03-15T03:47:51.729Z,34.93
2024-03-15T03:50:19.695Z,34.86
2024-03-15T03:52:47.869Z,35.16
2024-03-15T03:55:15.967Z,34.71
2024-03-15T03:57:45.984Z,34.89
2024-03-15T04:00:16.418Z,34.88
2024-03-15T04:02:45.006Z,34.92
2024-03-15T04:05:14.068Z,34.78
2024-03-15T04:07:42.774Z,35.04
2024-03-15T04:10:10.939Z,35.15
2024-03-15T04:12:38.776Z,34.97
2024-03-15T04:15:16.131Z,34.89
2024-03-15T04:17:52.928Z,34.97
2024-03-15T04:20:23.330Z,34.69
2024-03-15T04:22:51.706Z,34.95
2024-03-15T04:25:20.987Z,34.98
2024-03-15T04:27:50.230Z,34.88
2024-03-15T04:30:19.335Z,34.99
2024-03-15T04:32:47.876Z,35.01
2024-03-15T04:35:18.717Z,35.25
2024-03-15T04:37:46.455Z,35.34
2024-03-15T04:40:15.235Z,34.99
2024-03-15T04:42:43.306Z,35.26
2024-03-15T04:45:11.855Z,35.17
2024-03-15T04:47:41.114Z,35.10
2024-03-15T04:50:10.785Z,35.12
2024-03-15T04:52:38.676Z,35.21
2024-03-15T04:55:06.958Z,35.31
2024-03-15T04:57:37.924Z,35.41
2024-03-15T05:00:10.682Z,34.87
2024-03-15T05:02:38.830Z,35.05
2024-03-15T05:05:08.383Z,35.31
2024-03-15T05:07:36.290Z,35.32
2024-03-15T05:10:04.252Z,35.40
2024-03-15T05:12:32.099Z,34.89
2024-03-15T05:14:59.824Z,35.22
2024-03-15T05:17:27.847Z,34.93
2024-03-15T05:19:56.240Z,35.11
2024-03-15T05:22:25.592Z,35.44
2024-03-15T05:24:53.302Z,34.93
2024-03-15T05:27:22.709Z,35.35
2024-03-15T05:29:50.614Z,35.09
2024-03-15T05:32:18.401Z,35.28
2024-03-15T05:34:46.178Z,34.94
2024-03-15T05:37:13.940Z,35.28
2024-03-15T05:39:41.779Z,34.97
2024-03-15T05:42:09.665Z,35.17
2024-03-15T05:44:37.570Z,35.10
2024-03-15T05:47:05.554Z,35.17
2024-03-15T05:49:33.321Z,35.45
2024-03-15T05:52:01.041Z,35.75
2024-03-15T05:54:29.048Z,35.69
2024-03-15T05:56:56.975Z,35.92
2024-03-15T05:59:24.676Z,36.00
2024-03-15T06:01:52.426Z,35.66
2024-03-15T06:04:20.301Z,36.05
2024-03-15T06:06:48.353Z,36.11
2024-03-15T06:09:16.689Z,36.20
2024-03-15T06:11:44.502Z,36.14
2024-03-15T06:14:12.950Z,36.15
2024-03-15T06:16:41.025Z,35.78
2024-03-15T06:19:08.871Z,36.47
2024-03-15T06:21:37.634Z,36.08
2024-03-15T06:24:06.456Z,36.15
2024-03-15T06:26:34.186Z,36.32
2024-03-15T06:29:02.029Z,36.48
2024-03-15T06:31:29.812Z,36.33
2024-03-15T06:34:03.240Z,36.18
2024-03-15T06:36:33.109Z,36.36
2024-03-15T06:39:10.660Z,35.96
2024-03-15T06:41:42.140Z,35.86
2024-03-15T06:44:21.763Z,36.26
2024-03-15T06:47:05.648Z,35.90
2024-03-15T06:49:48.228Z,36.20
2024-03-15T06:52:35.596Z,36.22
2024-03-15T06:55:03.030Z,36.10
2024-03-15T06:57:30.784Z,36.19
2024-03-15T06:59:58.637Z,35.79
2024-03-15T07:02:26.384Z,35.88
2024-03-15T07:04:54.128Z,36.21
2024-03-15T07:07:22.015Z,35.97
2024-03-15T07:09:49.899Z,35.98
2024-03-15T07:12:17.758Z,36.25
2024-03-15T07:14:48.611Z,35.99
2024-03-15T07:17:18.787Z,36.31
2024-03-15T07:19:46.663Z,35.94
2024-03-15T07:22:16.790Z,35.96
2024-03-15T07:24:44.737Z,36.27
2024-03-15T07:27:12.626Z,36.18
2024-03-15T07:29:40.375Z,35.97
2024-03-15T07:32:08.346Z,36.19
2024-03-15T07:34:36.067Z,36.10
2024-03-15T07:37:05.710Z,36.44
2024-03-15T07:39:33.770Z,36.40
2024-03-15T07:42:01.628Z,36.31
2024-03-15T07:44:29.528Z,36.39
2024-03-15T07:46:57.470Z,36.12
2024-03-15T07:49:25.715Z,36.10
2024-03-15T07:51:54.737Z,36.50
2024-03-15T07:54:24.026Z,36.75
2024-03-15T07:56:53.887Z,36.60
2024-03-15T07:59:21.743Z,36.80
2024-03-15T08:01:49.803Z,36.86
2024-03-15T08:04:17.581Z,36.98
2024-03-15T08:06:46.052Z,36.86
2024-03-15T08:09:14.224Z,37.03
2024-03-15T08:11:43.676Z,37.36
2024-03-15T08:14:12.097Z,37.66
2024-03-15T08:16:44.521Z,37.53
2024-03-15T08:19:12.494Z,37.88
2024-03-15T08:21:40.541Z,37.87
2024-03-15T08:24:10.625Z,37.98
2024-03-15T08:26:40.948Z,37.91
2024-03-15T08:29:09.777Z,37.92
2024-03-15T08:31:37.991Z,37.90
2024-03-15T08:34:06.125Z,37.94
2024-03-15T08:36:36.168Z,37.87
2024-03-15T08:39:04.825Z,38.04
2024-03-15T08:41:32.738Z,38.13
2024-03-15T08:44:00.748Z,37.94
2024-03-15T08:46:32.337Z,38.34
2024-03-15T08:49:00.557Z,38.51
2024-03-15T08:51:28.960Z,38.33
2024-03-15T08:53:56.687Z,38.32
2024-03-15T08:56:25.575Z,38.43
2024-03-15T08:58:53.324Z,38.41
2024-03-15T09:01:25.231Z,38.57
2024-03-15T09:03:53.335Z,38.84
2024-03-15T09:06:22.007Z,39.12
2024-03-15T09:08:55.647Z,38.77
2024-03-15T09:11:24.148Z,38.77
2024-03-15T09:13:54.003Z,39.00
2024-03-15T09:16:22.818Z,38.51
2024-03-15T09:18:52.141Z,38.86
2024-03-15T09:21:20.804Z,38.75
2024-03-15T09:23:48.581Z,38.71
2024-03-15T09:26:17.550Z,38.74
2024-03-15T09:28:46.679Z,39.13
2024-03-15T09:31:29.908Z,38.89
2024-03-15T09:34:03.929Z,38.95
2024-03-15T09:36:33.498Z,39.01
2024-03-15T09:39:00.334Z,38.85
2024-03-15T09:41:28.057Z,39.19
2024-03-15T09:43:55.874Z,38.80
2024-03-15T09:46:25.827Z,39.29
2024-03-15T09:48:53.686Z,39.13
2024-03-15T09:51:21.680Z,38.93
2024-03-15T09:53:49.524Z,38.75
2024-03-15T09:56:17.230Z,38.91
2024-03-15T09:58:44.993Z,38.99
2024-03-15T10:01:14.176Z,38.70
2024-03-15T10:03:43.803Z,38.69
2024-03-15T10:06:13.017Z,38.24
2024-03-15T10:08:41.069Z,38.55
2024-03-15T10:11:08.861Z,38.86
2024-03-15T10:13:36.838Z,38.29
2024-03-15T10:16:06.225Z,38.41
2024-03-15T10:18:35.369Z,38.51
2024-03-15T10:21:03.143Z,38.51
2024-03-15T10:23:30.859Z,38.22
2024-03-15T10:25:58.731Z,38.46
2024-03-15T10:28:26.639Z,38.21
2024-03-15T10:30:54.393Z,38.03
2024-03-15T10:33:22.352Z,37.76
2024-03-15T10:35:50.125Z,37.82
2024-03-15T10:38:17.985Z,37.79
2024-03-15T10:40:45.913Z,38.11
2024-03-15T10:43:13.850Z,37.76
2024-03-15T10:45:44.780Z,37.75
2024-03-15T10:48:12.720Z,37.75
2024-03-15T10:50:40.860Z,37.30
2024-03-15T10:53:09.981Z,37.45
2024-03-15T10:55:37.799Z,37.34
2024-03-15T10:58:06.299Z,37.33
2024-03-15T11:00:34.400Z,37.10
2024-03-15T11:03:12.180Z,37.02
2024-03-15T11:05:40.103Z,37.12
2024-03-15T11:08:07.951Z,37.16
2024-03-15T11:10:35.762Z,36.81
2024-03-15T11:13:04.299Z,37.08
2024-03-15T11:15:32.141Z,36.70
2024-03-15T11:18:00.563Z,36.67
2024-03-15T11:20:28.470Z,36.49
2024-03-15T11:22:56.942Z,36.23
2024-03-15T11:25:25.134Z,36.12
2024-03-15T11:27:57.867Z,36.08
2024-03-15T11:30:28.481Z,36.00
2024-03-15T11:32:57.062Z,36.41
2024-03-15T11:35:25.013Z,36.72
2024-03-15T11:37:56.245Z,36.54
2024-03-15T11:40:25.757Z,36.32
2024-03-15T11:43:02.305Z,36.22
2024-03-15T11:45:36.301Z,36.29
2024-03-15T11:48:04.149Z,36.47
2024-03-15T11:50:31.958Z,36.11
2024-03-15T11:53:00.341Z,36.28
2024-03-15T11:55:28.036Z,36.06
2024-03-15T11:57:56.129Z,36.06
2024-03-15T12:00:25.181Z,35.89
2024-03-15T12:02:54.042Z,36.29
2024-03-15T12:05:21.887Z,36.16
2024-03-15T12:07:49.669Z,35.98
2024-03-15T12:10:17.496Z,35.84
2024-03-15T12:12:47.078Z,35.73
2024-03-15T12:15:28.255Z,35.82
2024-03-15T12:17:58.002Z,35.87
2024-03-15T12:20:26.666Z,35.50
2024-03-15T12:22:54.495Z,35.89
2024-03-15T12:25:22.260Z,35.65
2024-03-15T12:27:50.004Z,35.75
2024-03-15T12:30:18.216Z,35.68
2024-03-15T12:32:46.187Z,35.50
2024-03-15T12:35:14.267Z,35.56
2024-03-15T12:37:42.653Z,35.50
2024-03-15T12:40:12.240Z,35.58
2024-03-15T12:42:40.169Z,35.20
2024-03-15T12:45:09.422Z,35.26
2024-03-15T12:47:38.214Z,35.33
2024-03-15T12:50:07.198Z,35.30
2024-03-15T12:52:35.003Z,35.36
2024-03-15T12:55:02.773Z,34.72
2024-03-15T12:57:30.531Z,34.82
2024-03-15T12:59:58.291Z,34.60
2024-03-15T13:02:27.169Z,35.01
2024-03-15T13:04:54.841Z,34.94
2024-03-15T13:07:22.600Z,34.49
2024-03-15T13:09:50.334Z,34.73
2024-03-15T13:12:18.140Z,34.57
2024-03-15T13:14:45.895Z,34.57
2024-03-15T13:17:13.608Z,34.82
2024-03-15T13:19:41.350Z,34.96
2024-03-15T13:22:09.111Z,34.94
2024-03-15T13:24:37.784Z,34.53
2024-03-15T13:27:06.750Z,35.03
2024-03-15T13:29:35.802Z,34.98
2024-03-15T13:32:03.799Z,34.79
2024-03-15T13:34:31.528Z,34.98
2024-03-15T13:36:59.263Z,34.59
2024-03-15T13:39:29.421Z,34.44
2024-03-15T13:41:59.153Z,34.77
2024-03-15T13:44:27.971Z,34.53
2024-03-15T13:46:56.486Z,34.65
2024-03-15T13:49:24.197Z,34.27
2024-03-15T13:51:52.520Z,34.54
2024-03-15T13:54:20.356Z,34.53
2024-03-15T13:56:48.268Z,34.37
2024-03-15T13:59:15.986Z,34.61
2024-03-15T14:01:46.473Z,34.58
2024-03-15T14:04:17.052Z,34.61
2024-03-15T14:06:44.820Z,34.06
2024-03-15T14:09:12.836Z,34.21
2024-03-15T14:11:40.632Z,34.53
2024-03-15T14:14:08.364Z,34.26
2024-03-15T14:16:37.101Z,34.41
2024-03-15T14:19:05.716Z,34.12
2024-03-15T14:21:33.686Z,34.47
2024-03-15T14:24:01.448Z,34.51
2024-03-15T14:26:29.147Z,34.30
2024-03-15T14:28:56.888Z,34.39
2024-03-15T14:31:24.661Z,34.20
2024-03-15T14:33:52.482Z,34.36
2024-03-15T14:36:20.381Z,34.57
2024-03-15T14:38:49.708Z,34.78
2024-03-15T14:41:17.808Z,34.59
2024-03-15T14:43:45.551Z,34.19
2024-03-15T14:46:13.326Z,34.75
2024-03-15T14:48:41.284Z,34.66
2024-03-15T14:51:09.120Z,34.56
2024-03-15T14:53:36.852Z,34.82
2024-03-15T14:56:04.810Z,34.39
2024-03-15T14:58:32.686Z,34.22
2024-03-15T15:01:01.763Z,34.29
2024-03-15T15:03:29.668Z,34.48
2024-03-15T15:05:57.605Z,34.18
2024-03-15T15:08:25.902Z,34.76
2024-03-15T15:10:54.150Z,34.83
2024-03-15T15:13:22.093Z,34.56
2024-03-15T15:15:52.128Z,34.41
2024-03-15T15:18:20.355Z,34.69
2024-03-15T15:20:50.622Z,34.50
2024-03-15T15:23:18.540Z,34.34
2024-03-15T15:25:46.320Z,34.64
2024-03-15T15:28:14.277Z,35.03
2024-03-15T15:30:41.059Z,34.49
2024-03-15T15:33:09.614Z,34.47
2024-03-15T15:35:37.396Z,34.58
2024-03-15T15:38:05.592Z,34.55
2024-03-15T15:40:33.440Z,34.72
2024-03-15T15:43:01.762Z,35.08
2024-03-15T15:45:32.849Z,34.83
2024-03-15T15:48:01.757Z,34.80
2024-03-15T15:50:29.731Z,35.07
2024-03-15T15:52:57.587Z,35.10
2024-03-15T15:55:25.833Z,34.88
2024-03-15T15:57:55.502Z,35.27
2024-03-15T16:00:24.518Z,35.25
2024-03-15T16:02:52.624Z,35.34
2024-03-15T16:05:20.609Z,35.12
2024-03-15T16:07:48.546Z,35.25
2024-03-15T16:10:17.514Z,35.55
2024-03-15T16:12:46.264Z,35.46
2024-03-15T16:15:14.143Z,35.41
2024-03-15T16:17:42.118Z,35.14
2024-03-15T16:20:10.523Z,35.26
2024-03-15T16:22:38.333Z,35.58
2024-03-15T16:25:06.723Z,35.72
2024-03-15T16:27:34.830Z,35.83
2024-03-15T16:30:03.386Z,36.00
2024-03-15T16:32:31.386Z,35.82
2024-03-15T16:34:59.242Z,35.85
2024-03-15T16:37:26.979Z,36.15
2024-03-15T16:39:55.208Z,36.12
2024-03-15T16:42:23.090Z,36.16
2024-03-15T16:44:53.473Z,36.37
2024-03-15T16:47:21.941Z,36.48
2024-03-15T16:49:49.677Z,35.14
2024-03-15T16:52:19.727Z,34.86
2024-03-15T16:54:48.031Z,35.30
2024-03-15T16:57:15.928Z,36.05
2024-03-15T16:59:43.760Z,35.83
2024-03-15T17:02:12.333Z,35.81
2024-03-15T17:04:40.215Z,36.21
2024-03-15T17:07:08.152Z,36.23
2024-03-15T17:09:36.145Z,36.25
2024-03-15T17:12:05.467Z,36.41
2024-03-15T17:14:33.722Z,36.53
2024-03-15T17:17:01.534Z,36.63
2024-03-15T17:19:29.280Z,36.01
2024-03-15T17:21:57.024Z,36.08
2024-03-15T17:24:25.784Z,36.50
2024-03-15T17:26:53.422Z,36.54
2024-03-15T17:29:21.270Z,36.39
2024-03-15T17:31:48.997Z,36.58
2024-03-15T17:34:16.710Z,36.48
2024-03-15T17:36:44.662Z,36.46
2024-03-15T17:39:12.800Z,36.33
2024-03-15T17:41:40.662Z,36.59
2024-03-15T17:44:08.524Z,36.75
2024-03-15T17:46:36.548Z,36.44
2024-03-15T17:49:04.475Z,36.47
2024-03-15T17:51:32.329Z,36.27
2024-03-15T17:54:00.263Z,36.84
2024-03-15T17:56:28.031Z,36.36
2024-03-15T17:58:55.739Z,36.36
2024-03-15T18:01:23.434Z,36.07
2024-03-15T18:03:51.376Z,36.33
2024-03-15T18:06:19.168Z,36.59
2024-03-15T18:08:47.489Z,36.48
2024-03-15T18:11:15.258Z,36.69
2024-03-15T18:13:42.996Z,36.56
2024-03-15T18:16:10.858Z,36.72
2024-03-15T18:18:38.765Z,36.26
2024-03-15T18:21:06.554Z,36.58
2024-03-15T18:23:34.337Z,36.68
2024-03-15T18:26:02.079Z,36.69
2024-03-15T18:28:29.826Z,36.73
2024-03-15T18:30:58.481Z,36.62
2024-03-15T18:33:26.323Z,36.96
2024-03-15T18:35:54.296Z,36.80
2024-03-15T18:38:22.006Z,36.76
2024-03-15T18:40:49.758Z,37.03
2024-03-15T18:43:18.202Z,37.09
2024-03-15T18:45:48.546Z,37.21
2024-03-15T18:48:16.475Z,36.70
2024-03-15T18:50:44.296Z,36.75
2024-03-15T18:53:12.062Z,36.11
2024-03-15T18:55:39.770Z,36.42
2024-03-15T18:58:09.633Z,36.67
2024-03-15T19:00:37.495Z,36.35
2024-03-15T19:03:05.689Z,36.28
2024-03-15T19:05:35.314Z,36.38
2024-03-15T19:08:03.324Z,36.12
2024-03-15T19:10:31.167Z,36.51
2024-03-15T19:13:00.447Z,36.36
2024-03-15T19:15:29.590Z,36.02
2024-03-15T19:17:56.951Z,36.26
2024-03-15T19:20:25.976Z,36.13
2024-03-15T19:22:54.096Z,36.40
2024-03-15T19:25:21.901Z,36.24
2024-03-15T19:27:49.733Z,36.22
2024-03-15T19:30:17.567Z,36.41
2024-03-15T19:32:45.346Z,35.98
2024-03-15T19:35:13.804Z,36.08
2024-03-15T19:37:42.655Z,36.36
2024-03-15T19:40:11.762Z,36.12
2024-03-15T19:42:39.820Z,36.23
2024-03-15T19:45:08.523Z,36.36
2024-03-15T19:47:36.394Z,36.21
2024-03-15T19:50:04.251Z,36.43
2024-03-15T19:52:33.349Z,36.11
2024-03-15T19:55:01.287Z,36.32
2024-03-15T19:57:29.154Z,36.00
2024-03-15T19:59:56.951Z,36.17
2024-03-15T20:02:24.719Z,36.05
2024-03-15T20:04:52.706Z,35.93
2024-03-15T20:07:20.508Z,35.84
2024-03-15T20:09:48.268Z,35.79
2024-03-15T20:12:16.007Z,35.99
2024-03-15T20:14:43.770Z,36.05
2024-03-15T20:17:11.549Z,36.34
2024-03-15T20:19:39.243Z,36.47
2024-03-15T20:22:07.703Z,36.39
2024-03-15T20:24:35.640Z,36.21
2024-03-15T20:27:03.392Z,36.28
2024-03-15T20:29:31.123Z,36.05
2024-03-15T20:31:58.868Z,36.23
2024-03-15T20:34:26.722Z,35.74
2024-03-15T20:36:54.489Z,36.07
2024-03-15T20:39:23.467Z,35.98
2024-03-15T20:41:52.110Z,36.38
2024-03-15T20:44:19.869Z,36.23
2024-03-15T20:46:47.651Z,36.09
2024-03-15T20:49:16.962Z,36.20
2024-03-15T20:51:47.718Z,35.88
2024-03-15T20:54:15.612Z,35.67
2024-03-15T20:56:43.484Z,35.59
2024-03-15T20:59:11.292Z,35.90
2024-03-15T21:01:42.002Z,35.91
2024-03-15T21:04:10.189Z,36.03
2024-03-15T21:06:38.009Z,35.61
2024-03-15T21:09:06.532Z,36.07
2024-03-15T21:11:34.333Z,35.98
2024-03-15T21:14:02.629Z,35.50
2024-03-15T21:16:30.393Z,35.91
2024-03-15T21:18:58.551Z,35.65
2024-03-15T21:21:26.319Z,35.69
2024-03-15T21:23:54.614Z,35.76
2024-03-15T21:26:22.430Z,35.71
2024-03-15T21:28:50.191Z,35.59
2024-03-15T21:31:17.976Z,35.55
2024-03-15T21:33:47.890Z,35.48
2024-03-15T21:36:15.770Z,35.73
2024-03-15T21:38:43.585Z,35.61
2024-03-15T21:41:13.539Z,35.79
2024-03-15T21:43:41.691Z,36.05
2024-03-15T21:46:11.120Z,36.00
2024-03-15T21:48:39.285Z,35.89
2024-03-15T21:51:07.373Z,36.32
2024-03-15T21:53:35.148Z,35.96
2024-03-15T21:56:06.162Z,36.30
2024-03-15T21:58:33.894Z,36.20
2024-03-15T22:01:03.055Z,36.46
2024-03-15T22:03:33.000Z,36.19
2024-03-15T22:06:00.774Z,36.10
2024-03-15T22:08:28.543Z,36.49
2024-03-15T22:10:56.478Z,36.29
2024-03-15T22:13:24.512Z,36.29
2024-03-15T22:15:54.988Z,36.73
2024-03-15T22:18:22.832Z,36.73
2024-03-15T22:20:50.640Z,36.72
2024-03-15T22:23:18.407Z,36.48
2024-03-15T22:25:49.411Z,36.56
2024-03-15T22:28:17.303Z,36.48
2024-03-15T22:30:45.062Z,36.36
2024-03-15T22:33:13.450Z,35.78
2024-03-15T22:35:41.152Z,35.95
2024-03-15T22:38:08.868Z,35.61
2024-03-15T22:40:36.580Z,35.57
2024-03-15T22:43:04.504Z,35.98
2024-03-15T22:45:32.283Z,35.95
2024-03-15T22:48:01.524Z,36.06
2024-03-15T22:50:29.303Z,36.55
2024-03-15T22:52:57.209Z,36.73
2024-03-15T22:55:25.088Z,36.93
2024-03-15T22:57:52.887Z,37.39
2024-03-15T23:00:22.070Z,37.67
2024-03-15T23:02:54.061Z,37.91
2024-03-15T23:05:22.361Z,37.90
2024-03-15T23:07:50.240Z,37.63
2024-03-15T23:10:18.380Z,37.91
2024-03-15T23:12:48.353Z,37.92
2024-03-15T23:15:16.386Z,37.55
2024-03-15T23:17:44.502Z,37.41
2024-03-15T23:20:13.736Z,37.23
2024-03-15T23:22:45.028Z,37.47
2024-03-15T23:25:13.699Z,37.22
2024-03-15T23:27:41.625Z,36.97
2024-03-15T23:30:09.892Z,36.70
2024-03-15T23:32:37.732Z,36.85
2024-03-15T23:35:08.893Z,36.76
2024-03-15T23:37:36.613Z,36.46
2024-03-15T23:40:05.781Z,36.18
2024-03-15T23:42:34.335Z,36.14
2024-03-15T23:45:02.243Z,36.19
2024-03-15T23:47:31.498Z,35.77
2024-03-15T23:49:59.252Z,35.81
2024-03-15T23:52:27.470Z,35.68
2024-03-15T23:54:55.258Z,35.57
2024-03-15T23:57:23.186Z,35.73
2024-03-15T23:59:51.297Z,35.45
